Flight Track Log - Related Links

Times and Time Zones

All times are in EDT time to prevent confusion due to time zone crossing. See the NKS216 flight status page for this flight to view local times or setup timezone preferences in your user account.

Time Position Orientation Groundspeed Altitude Reporting Facility
EDT Latitude Longitude Course Direction KTS MPH feet Rate Location/Type
Mon 06:07:59 AM 33.9100 -118.4800 212° Southwest 200 230 2,700  Level FlightAware ADS-B
Mon 06:08:24 AM 33.8870 -118.4860 192° South 218 251 3,500 1,964 Climbing FlightAware ADS-B
Mon 06:08:54 AM 33.8520 -118.4910 187° South 265 305 4,500 2,600 Climbing FlightAware ADS-B
Mon 06:09:24 AM 33.8170 -118.4990 191° South 273 314 6,100 3,310 Climbing FlightAware ADS-B
Mon 06:09:52 AM 33.7790 -118.5070 190° South 280 322 7,700 3,170 Climbing FlightAware ADS-B
Mon 06:10:17 AM 33.7480 -118.5130 189° South 284 327 8,900 2,735 Climbing FlightAware ADS-B
Mon 06:11:00 AM 33.6950 -118.4960 165° South 318 366 10,800 2,055 Climbing FlightAware ADS-B
Mon 06:11:30 AM 33.6710 -118.4410 118° Southeast 364 419 11,400 1,629 Climbing FlightAware ADS-B
Mon 06:12:10 AM 33.6490 -118.3600 108° East 387 445 12,700 2,250 Climbing FlightAware ADS-B
Mon 06:12:50 AM 33.6400 -118.2740 97° East 394 453 14,400 2,233 Climbing FlightAware ADS-B
Mon 06:13:36 AM 33.6330 -118.1730 95° East 409 471 15,900 2,163 Climbing FlightAware ADS-B
Mon 06:14:16 AM 33.6270 -118.0820 95° East 410 472 17,500 2,132 Climbing FlightAware ADS-B
Mon 06:14:52 AM 33.6220 -117.9990 94° East 420 483 18,600 1,658 Climbing FlightAware ADS-B
Mon 06:15:32 AM 33.6160 -117.9060 94° East 430 495 19,600 1,643 Climbing FlightAware ADS-B
Mon 06:16:16 AM 33.6090 -117.8010 95° East 433 498 20,900 1,744 Climbing FlightAware ADS-B
Mon 06:16:58 AM 33.6020 -117.6980 95° East 438 504 22,100 1,465 Climbing FlightAware ADS-B
Mon 06:17:42 AM 33.5940 -117.5900 95° East 448 516 23,000 1,286 Climbing FlightAware ADS-B
Mon 06:18:22 AM 33.5870 -117.4920 95° East 456 525 23,900 1,390 Climbing FlightAware ADS-B
Mon 06:19:04 AM 33.5790 -117.3830 95° East 461 531 24,900 1,256 Climbing FlightAware ADS-B
Mon 06:19:48 AM 33.5710 -117.2720 95° East 470 541 25,700 1,256 Climbing FlightAware ADS-B
Mon 06:20:30 AM 33.5630 -117.1630 95° East 471 542 26,700 1,326 Climbing FlightAware ADS-B
Mon 06:21:14 AM 33.5550 -117.0480 95° East 476 548 27,600 1,171 Climbing FlightAware ADS-B
Mon 06:21:52 AM 33.5470 -116.9460 95° East 483 556 28,300 1,098 Climbing FlightAware ADS-B
Mon 06:22:36 AM 33.5380 -116.8300 95° East 489 563 29,100 1,000 Climbing FlightAware ADS-B
Mon 06:23:16 AM 33.5300 -116.7190 95° East 498 573 29,700 732 Climbing FlightAware ADS-B
Mon 06:23:58 AM 33.5210 -116.6060 95° East 509 586 30,100 955 Climbing FlightAware ADS-B
Mon 06:24:44 AM 33.5110 -116.4740 95° East 506 582 31,100 1,326 Climbing FlightAware ADS-B
Mon 06:25:24 AM 33.5020 -116.3640 96° East 502 578 32,000 1,500 Climbing FlightAware ADS-B
Mon 06:26:08 AM 33.4920 -116.2430 96° East 495 570 33,200 1,286 Climbing FlightAware ADS-B
Mon 06:26:48 AM 33.4830 -116.1340 96° East 498 573 33,800 1,143 Climbing FlightAware ADS-B
Mon 06:27:32 AM 33.4730 -116.0160 96° East 493 567 34,800 1,071 Climbing FlightAware ADS-B
Mon 06:28:12 AM 33.4640 -115.9070 96° East 496 571 35,300 900 Climbing FlightAware ADS-B
Mon 06:28:52 AM 33.4550 -115.7980 96° East 492 566 36,000 907 Climbing FlightAware ADS-B
Mon 06:29:38 AM 33.4440 -115.6740 96° East 495 570 36,600 750 Climbing FlightAware ADS-B
Mon 06:30:12 AM 33.4370 -115.5820 95° East 493 567 37,000 312 Climbing FlightAware ADS-B
Mon 06:30:55 AM 33.4270 -115.4760 96° East 491 565 37,000  Level FlightAware ADS-B
Mon 06:31:41 AM 33.4160 -115.3470 96° East 495 570 37,000  Level FlightAware ADS-B
Mon 06:32:33 AM 33.4030 -115.2010 96° East 500 575 37,000  Level FlightAware ADS-B
Mon 06:33:32 AM 33.3890 -115.0440 96° East 502 578 37,000  Level FlightAware ADS-B
Mon 06:34:09 AM 33.3810 -114.9570 96° East 502 578 37,000  Level FlightAware ADS-B
Mon 06:34:57 AM 33.3710 -114.8440 96° East 502 578 37,000  Level FlightAware ADS-B
Mon 06:35:35 AM 33.3630 -114.7550 96° East 502 578 37,000  Level FlightAware ADS-B
Mon 06:36:23 AM 33.3540 -114.6420 95° East 502 578 37,000  Level FlightAware ADS-B
Mon 06:36:59 AM 33.3460 -114.5570 96° East 502 578 37,000  Level FlightAware ADS-B
Mon 06:37:44 AM 33.3310 -114.4210 97° East 498 573 37,000  Level FlightAware ADS-B
Mon 06:38:29 AM 33.3110 -114.2210 97° East 494 568 37,000  Level FlightAware ADS-B
Mon 06:39:09 AM 33.3000 -114.1130 97° East 491 565 37,000  Level FlightAware ADS-B
Mon 06:39:51 AM 33.2890 -114.0010 97° East 488 562 37,000  Level FlightAware ADS-B
Mon 06:40:33 AM 33.2780 -113.8890 97° East 486 559 37,000  Level FlightAware ADS-B
Mon 06:41:17 AM 33.2670 -113.7770 97° East 485 558 37,000 -63 Level FlightAware ADS-B
Mon 06:42:08 AM 33.2520 -113.6350 97° East 486 559 36,900  Descending FlightAware ADS-B
Mon 06:42:51 AM 33.2490 -113.6010 96° East 487 560 37,000 71 Climbing FlightAware ADS-B
Mon 06:43:33 AM 33.2360 -113.4780 97° East 490 564 37,000  Level FlightAware ADS-B
Mon 06:44:13 AM 33.2260 -113.3800 97° East 493 567 37,000  Level FlightAware ADS-B
Mon 06:44:57 AM 33.2130 -113.2550 97° East 494 568 37,000 67 Level FlightAware ADS-B
Mon 06:45:43 AM 33.1980 -113.1210 98° East 492 566 37,100  Climbing FlightAware ADS-B
Mon 06:46:23 AM 33.1800 -112.9520 97° East 493 567 37,000 -74 Descending FlightAware ADS-B
Mon 06:47:04 AM 33.1680 -112.8410 97° East 492 566 37,000  Level FlightAware ADS-B
Mon 06:47:49 AM 33.1550 -112.7200 97° East 491 565 37,000  Level FlightAware ADS-B
Mon 06:48:29 AM 33.1430 -112.6120 98° East 491 565 37,000  Level FlightAware ADS-B
Mon 06:49:13 AM 33.1300 -112.4930 97° East 491 565 37,000  Level FlightAware ADS-B
Mon 06:49:53 AM 33.1180 -112.3870 98° East 492 566 37,000  Level FlightAware ADS-B
Mon 06:50:36 AM 33.1050 -112.2720 98° East 494 568 37,000  Level FlightAware ADS-B
Mon 06:51:17 AM 33.0920 -112.1600 98° East 495 570 37,000  Level FlightAware ADS-B
Mon 06:51:57 AM 33.0790 -112.0520 98° East 496 571 37,000  Level FlightAware ADS-B
Mon 06:52:37 AM 33.0670 -111.9440 98° East 495 570 37,000  Level FlightAware ADS-B
Mon 06:53:23 AM 33.0520 -111.8200 98° East 495 570 37,000  Level FlightAware ADS-B
Mon 06:54:05 AM 33.0390 -111.7070 98° East 493 567 37,000  Level FlightAware ADS-B
Mon 06:54:45 AM 33.0260 -111.6000 98° East 494 568 37,000  Level FlightAware ADS-B
Mon 06:55:29 AM 33.0120 -111.4810 98° East 494 568 37,000  Level FlightAware ADS-B
Mon 06:56:09 AM 32.9980 -111.3720 99° East 495 570 37,000  Level FlightAware ADS-B
Mon 06:56:55 AM 32.9830 -111.2500 98° East 496 571 37,000  Level FlightAware ADS-B
Mon 06:57:35 AM 32.9700 -111.1400 98° East 496 571 37,000  Level FlightAware ADS-B
Mon 06:58:20 AM 32.9550 -111.0200 98° East 498 573 37,000  Level FlightAware ADS-B
Mon 06:58:59 AM 32.9420 -110.9140 98° East 496 571 37,000 76 Level FlightAware ADS-B
Mon 06:59:39 AM 32.9280 -110.8070 99° East 492 566 37,100  Climbing FlightAware ADS-B
Mon 07:00:23 AM 32.9130 -110.6880 99° East 491 565 37,000 -68 Descending FlightAware ADS-B
Mon 07:01:07 AM 32.8990 -110.5730 98° East 489 563 37,000  Level FlightAware ADS-B
Mon 07:01:48 AM 32.8850 -110.4660 99° East 487 560 37,000  Level FlightAware ADS-B
Mon 07:02:30 AM 32.8700 -110.3540 99° East 488 562 37,000  Level FlightAware ADS-B
Mon 07:03:11 AM 32.8560 -110.2440 99° East 489 563 37,000  Level FlightAware ADS-B
Mon 07:03:51 AM 32.8420 -110.1380 99° East 492 566 37,000  Level FlightAware ADS-B
Mon 07:04:37 AM 32.8260 -110.0140 99° East 495 570 37,000  Level FlightAware ADS-B
Mon 07:05:19 AM 32.8100 -109.9000 99° East 498 573 37,000  Level FlightAware ADS-B
Mon 07:05:59 AM 32.7960 -109.7940 99° East 497 572 37,000  Level FlightAware ADS-B
Mon 07:06:39 AM 32.7810 -109.6860 99° East 500 575 37,000 75 Level FlightAware ADS-B
Mon 07:07:19 AM 32.7670 -109.5790 99° East 500 575 37,100  Climbing FlightAware ADS-B
Mon 07:08:05 AM 32.7500 -109.4520 99° East 501 577 37,000 -67 Descending FlightAware ADS-B
Mon 07:08:49 AM 32.7330 -109.3320 100° East 503 579 37,000  Level FlightAware ADS-B
Mon 07:09:31 AM 32.7170 -109.2200 100° East 498 573 37,000  Level FlightAware ADS-B
Mon 07:10:11 AM 32.7020 -109.1120 99° East 495 570 37,000  Level FlightAware ADS-B
Mon 07:10:55 AM 32.6860 -108.9950 99° East 492 566 37,000  Level FlightAware ADS-B
Mon 07:11:35 AM 32.6700 -108.8870 100° East 496 571 37,000  Level FlightAware ADS-B
Mon 07:12:13 AM 32.6560 -108.7840 99° East 498 573 37,000  Level FlightAware ADS-B
Mon 07:12:57 AM 32.6390 -108.6660 100° East 499 574 37,000  Level FlightAware ADS-B
Mon 07:13:40 AM 32.6220 -108.5520 100° East 501 577 37,000  Level FlightAware ADS-B
Mon 07:14:24 AM 32.6050 -108.4330 100° East 501 577 37,000  Level FlightAware ADS-B
Mon 07:15:08 AM 32.5870 -108.3140 100° East 502 578 37,000  Level FlightAware ADS-B
Mon 07:15:47 AM 32.5730 -108.2190 100° East 501 577 37,000  Level FlightAware ADS-B
Mon 07:16:30 AM 32.5550 -108.0930 100° East 499 574 37,000  Level FlightAware ADS-B
Mon 07:17:09 AM 32.5430 -108.0030 99° East 499 574 37,000  Level FlightAware ADS-B
Mon 07:17:47 AM 32.5310 -107.9160 99° East 499 574 37,000  Level FlightAware ADS-B
Mon 07:18:33 AM 32.5170 -107.8100 99° East 499 574 37,000  Level FlightAware ADS-B
Mon 07:19:19 AM 32.5030 -107.7050 99° East 499 574 37,000  Level FlightAware ADS-B
Mon 07:20:07 AM 32.4720 -107.5340 102° East 492 566 37,000  Level FlightAware ADS-B
Mon 07:20:53 AM 32.4580 -107.4300 99° East 492 566 37,000  Level FlightAware ADS-B
Mon 07:21:41 AM 32.4430 -107.3220 99° East 492 566 37,000  Level FlightAware ADS-B
Mon 07:22:20 AM 32.4310 -107.2330 99° East 492 566 37,000  Level FlightAware ADS-B
Mon 07:22:57 AM 32.4200 -107.1490 99° East 492 566 37,000  Level FlightAware ADS-B
Mon 07:23:46 AM 32.4050 -107.0390 99° East 492 566 37,000  Level FlightAware ADS-B
Mon 07:24:22 AM 32.3940 -106.9570 99° East 492 566 37,000  Level FlightAware ADS-B
Mon 07:24:49 AM 32.3860 -106.8960 99° East 492 566 37,000  Level FlightAware ADS-B
Mon 07:25:35 AM 32.3720 -106.7920 99° East 492 566 37,000  Level FlightAware ADS-B
Mon 07:26:13 AM 32.3610 -106.7060 99° East 492 566 37,000  Level FlightAware ADS-B
Mon 07:27:01 AM 32.3460 -106.5970 99° East 492 566 37,000  Level FlightAware ADS-B
Mon 07:27:35 AM 32.3360 -106.5200 99° East 492 566 37,000  Level FlightAware ADS-B
Mon 07:28:24 AM 32.3210 -106.4100 99° East 492 566 37,000  Level FlightAware ADS-B
Mon 07:29:01 AM 32.3100 -106.3260 99° East 492 566 37,000  Level FlightAware ADS-B
Mon 07:30:07 AM 32.2089 -105.9111 99° East 506 582 37,000 -47 Level Albuquerque Center
Mon 07:31:08 AM 32.1822 -105.7503 101° East 500 575 36,900 -50 Descending Albuquerque Center
Mon 07:32:08 AM 32.1542 -105.5894 102° East 500 575 36,900  Level Albuquerque Center
Mon 07:33:08 AM 32.1269 -105.4281 101° East 501 577 36,900 16 Level Albuquerque Center
Mon 07:38:15 AM 31.9800 -104.5830 101° East 503 579 37,000 17 Climbing FlightAware ADS-B
Mon 07:38:52 AM 31.9660 -104.4980 101° East 503 579 37,000  Level FlightAware ADS-B
Mon 07:39:28 AM 31.9520 -104.4160 101° East 503 579 37,000  Level FlightAware ADS-B
Mon 07:40:16 AM 31.9340 -104.3060 101° East 503 579 37,000  Level FlightAware ADS-B
Mon 07:41:03 AM 31.9160 -104.1990 101° East 503 579 37,000  Level FlightAware ADS-B
Mon 07:41:39 AM 31.9030 -104.1160 100° East 503 579 37,000  Level FlightAware ADS-B
Mon 07:42:16 AM 31.8890 -104.0320 101° East 503 579 37,000  Level FlightAware ADS-B
Mon 07:43:05 AM 31.8700 -103.9200 101° East 503 579 37,000  Level FlightAware ADS-B
Mon 07:43:42 AM 31.8560 -103.8350 101° East 503 579 37,000  Level FlightAware ADS-B
Mon 07:44:30 AM 31.8380 -103.7250 101° East 503 579 37,000  Level FlightAware ADS-B
Mon 07:45:04 AM 31.8250 -103.6480 101° East 503 579 37,000  Level FlightAware ADS-B
Mon 07:45:54 AM 31.8060 -103.5330 101° East 503 579 37,000  Level FlightAware ADS-B
Mon 07:46:43 AM 31.7880 -103.4210 101° East 503 579 37,000  Level FlightAware ADS-B
Mon 07:47:08 AM 31.7790 -103.3640 101° East 503 579 37,000  Level FlightAware ADS-B
Mon 07:47:46 AM 31.7640 -103.2780 102° East 503 579 37,000 500 Level FlightAware ADS-B
Mon 07:51:08 AM 31.6220 -102.5660 103° East 498 573 39,000 492 Climbing FlightAware ADS-B
Mon 07:51:50 AM 31.6100 -102.4480 97° East 501 577 39,000  Level FlightAware ADS-B
Mon 07:52:32 AM 31.5990 -102.3360 97° East 503 579 39,000  Level FlightAware ADS-B
Mon 07:53:16 AM 31.5860 -102.2170 97° East 505 581 39,000  Level FlightAware ADS-B
Mon 07:53:56 AM 31.5750 -102.1070 97° East 506 582 39,000  Level FlightAware ADS-B
Mon 07:54:40 AM 31.5620 -101.9870 97° East 507 583 39,000  Level FlightAware ADS-B
Mon 07:55:20 AM 31.5510 -101.8780 97° East 508 585 39,000  Level FlightAware ADS-B
Mon 07:56:00 AM 31.5390 -101.7670 97° East 509 586 39,000  Level FlightAware ADS-B
Mon 07:56:44 AM 31.5260 -101.6490 97° East 509 586 39,000  Level FlightAware ADS-B
Mon 07:57:28 AM 31.5130 -101.5280 97° East 508 585 39,000  Level FlightAware ADS-B
Mon 07:58:04 AM 31.5030 -101.4300 97° East 508 585 39,000  Level FlightAware ADS-B
Mon 07:58:50 AM 31.4890 -101.3060 98° East 508 585 39,000  Level FlightAware ADS-B
Mon 07:59:30 AM 31.4770 -101.1970 97° East 508 585 39,000  Level FlightAware ADS-B
Mon 08:00:16 AM 31.4630 -101.0710 97° East 507 583 39,000  Level FlightAware ADS-B
Mon 08:00:56 AM 31.4510 -100.9640 97° East 506 582 39,000  Level FlightAware ADS-B
Mon 08:01:36 AM 31.4380 -100.8560 98° East 505 581 39,000  Level FlightAware ADS-B
Mon 08:02:20 AM 31.4240 -100.7360 98° East 505 581 39,000  Level FlightAware ADS-B
Mon 08:03:02 AM 31.4110 -100.6220 98° East 505 581 39,000  Level FlightAware ADS-B
Mon 08:03:46 AM 31.3970 -100.5010 98° East 507 583 39,000  Level FlightAware ADS-B
Mon 08:04:26 AM 31.3850 -100.3950 98° East 508 585 39,000  Level FlightAware ADS-B
Mon 08:05:04 AM 31.3720 -100.2920 98° East 508 585 39,000  Level FlightAware ADS-B
Mon 08:05:52 AM 31.3560 -100.1590 98° East 509 586 39,000  Level FlightAware ADS-B
Mon 08:06:32 AM 31.3430 -100.0520 98° East 508 585 39,000  Level FlightAware ADS-B
Mon 08:07:12 AM 31.3300 -99.9420 98° East 506 582 39,000  Level FlightAware ADS-B
Mon 08:07:56 AM 31.3160 -99.8250 98° East 506 582 39,000  Level FlightAware ADS-B
Mon 08:08:40 AM 31.3010 -99.7060 98° East 506 582 39,000  Level FlightAware ADS-B
Mon 08:09:20 AM 31.2880 -99.5970 98° East 506 582 39,000  Level FlightAware ADS-B
Mon 08:10:02 AM 31.2730 -99.4820 99° East 506 582 39,000  Level FlightAware ADS-B
Mon 08:10:49 AM 31.2573 -99.3555 98° East 505 581 39,000  Level FlightAware ADS-B
Mon 08:11:34 AM 31.2430 -99.2400 98° East 505 581 39,000  Level FlightAware ADS-B
Mon 08:12:10 AM 31.2300 -99.1420 99° East 504 580 39,000  Level FlightAware ADS-B
Mon 08:12:59 AM 31.2140 -99.0130 98° East 503 579 39,000  Level FlightAware ADS-B
Mon 08:13:41 AM 31.1990 -98.9000 99° East 503 579 39,000  Level FlightAware ADS-B
Mon 08:14:23 AM 31.1840 -98.7860 99° East 502 578 39,000  Level FlightAware ADS-B
Mon 08:15:08 AM 31.1680 -98.6660 99° East 499 574 39,000  Level FlightAware ADS-B
Mon 08:15:49 AM 31.1530 -98.5518 99° East 498 573 39,000  Level FlightAware ADS-B
Mon 08:16:28 AM 31.1392 -98.4476 99° East 497 572 39,000  Level FlightAware ADS-B
Mon 08:17:07 AM 31.1256 -98.3467 99° East 497 572 39,000  Level FlightAware ADS-B
Mon 08:17:42 AM 31.1130 -98.2537 99° East 497 572 39,000  Level FlightAware ADS-B
Mon 08:18:19 AM 31.0998 -98.1554 99° East 498 573 39,000  Level FlightAware ADS-B
Mon 08:18:51 AM 31.0882 -98.0710 99° East 499 574 39,000  Level FlightAware ADS-B
Mon 08:19:23 AM 31.0763 -97.9845 99° East 499 574 39,000  Level FlightAware ADS-B
Mon 08:19:59 AM 31.0631 -97.8890 99° East 500 575 39,000  Level FlightAware ADS-B
Mon 08:20:30 AM 31.0520 -97.8085 99° East 499 574 39,000  Level FlightAware ADS-B
Mon 08:20:55 AM 31.0425 -97.7409 99° East 500 575 39,000  Level FlightAware ADS-B
Mon 08:21:01 AM 31.0405 -97.7266 99° East 499 574 39,000  Level FlightAware ADS-B
Mon 08:21:31 AM 31.0292 -97.6462 99° East 497 572 39,000  Level FlightAware ADS-B
Mon 08:22:07 AM 31.0161 -97.5521 99° East 495 570 39,000 -226 Level FlightAware ADS-B
Mon 08:22:24 AM 31.0098 -97.5085 100° East 495 570 38,800 -800 Descending FlightAware ADS-B
Mon 08:22:37 AM 31.0027 -97.4745 104° East 495 570 38,600 -964 Descending FlightAware ADS-B
Mon 08:24:41 AM 30.8997 -97.1669 111° Southeast 494 568 36,600 -973 Descending FlightAware ADS-B
Mon 08:25:42 AM 30.8488 -97.0153 111° Southeast 494 568 35,600 -923 Descending FlightAware ADS-B
Mon 08:26:12 AM 30.8237 -96.9413 112° Southeast 491 565 35,200 -984 Descending FlightAware ADS-B
Mon 08:26:43 AM 30.7980 -96.8650 111° Southeast 493 567 34,600 -1,645 Descending FlightAware ADS-B
Mon 08:27:14 AM 30.7721 -96.7890 112° Southeast 497 572 33,500 -2,656 Descending FlightAware ADS-B
Mon 08:27:44 AM 30.7469 -96.7146 111° Southeast 497 572 31,900 -3,297 Descending FlightAware ADS-B
Mon 08:28:45 AM 30.6956 -96.5643 112° Southeast 493 567 28,500 -3,692 Descending FlightAware ADS-B
Mon 08:29:15 AM 30.6701 -96.4892 112° Southeast 498 573 26,300 -4,300 Descending FlightAware ADS-B
Mon 08:29:45 AM 30.6445 -96.4152 112° Southeast 494 568 24,200 -3,800 Descending FlightAware ADS-B
Mon 08:30:15 AM 30.6193 -96.3416 112° Southeast 482 555 22,500 -3,246 Descending FlightAware ADS-B
Mon 08:31:47 AM 30.5463 -96.1295 112° Southeast 446 513 17,600 -3,344 Descending FlightAware ADS-B
Mon 08:32:17 AM 30.5232 -96.0634 112° Southeast 438 504 15,700 -2,631 Descending FlightAware ADS-B
Mon 08:33:57 AM 30.4565 -95.8720 113° Southeast 338 389 11,900 -2,127 Descending FlightAware ADS-B
Mon 08:34:07 AM 30.4481 -95.8570 130° Southeast 327 376 11,800 -811 Descending FlightAware ADS-B
Mon 08:35:11 AM 30.3826 -95.7882 138° Southeast 294 338 10,900 -957 Descending FlightAware ADS-B
Mon 08:35:41 AM 30.3525 -95.7565 138° Southeast 288 331 10,300 -1,500 Descending FlightAware ADS-B
Mon 08:36:43 AM 30.2913 -95.6927 138° Southeast 283 326 8,600 -1,595 Descending FlightAware ADS-B
Mon 08:37:00 AM 30.2749 -95.6755 138° Southeast 281 323 8,200 -1,273 Descending FlightAware ADS-B
Mon 08:37:16 AM 30.2602 -95.6601 138° Southeast 279 321 7,900 -857 Descending FlightAware ADS-B
Mon 08:38:31 AM 30.1888 -95.5858 138° Southeast 273 314 6,900 -561 Descending FlightAware ADS-B
Mon 08:39:03 AM 30.1593 -95.5550 138° Southeast 273 314 6,900  Level FlightAware ADS-B
Mon 08:39:18 AM 30.1452 -95.5406 139° Southeast 271 312 6,900  Level FlightAware ADS-B
Mon 08:39:59 AM 30.1093 -95.4983 121° Southeast 275 316 6,900  Level FlightAware ADS-B
Mon 08:40:03 AM 30.1074 -95.4927 111° Southeast 277 319 6,900  Level FlightAware ADS-B
Mon 08:40:07 AM 30.1061 -95.4861 103° East 280 322 6,900  Level FlightAware ADS-B
Mon 08:40:29 AM 30.1057 -95.4533 89° East 287 330 6,900  Level FlightAware ADS-B
Mon 08:40:45 AM 30.1060 -95.4293 89° East 285 328 6,900  Level FlightAware ADS-B
Mon 08:41:30 AM 30.1063 -95.3672 90° East 245 282 6,900  Level FlightAware ADS-B
Mon 08:41:45 AM 30.1063 -95.3466 90° East 243 280 6,900  Level FlightAware ADS-B
Mon 08:42:03 AM 30.1062 -95.3246 90° East 242 278 6,900  Level FlightAware ADS-B
Mon 08:42:45 AM 30.1062 -95.2697 90° East 240 276 6,900  Level FlightAware ADS-B
Mon 08:43:01 AM 30.1061 -95.2493 90° East 240 276 6,900  Level FlightAware ADS-B
Mon 08:43:32 AM 30.1061 -95.2097 90° East 242 278 6,900  Level FlightAware ADS-B
Mon 08:44:14 AM 30.1061 -95.1555 90° East 240 276 6,900  Level FlightAware ADS-B
Mon 08:44:30 AM 30.1061 -95.1356 90° East 241 277 6,900  Level FlightAware ADS-B
Mon 08:45:01 AM 30.1059 -95.0953 90° East 243 280 6,900  Level FlightAware ADS-B
Mon 08:45:17 AM 30.1060 -95.0751 90° East 244 281 6,900  Level FlightAware ADS-B
Mon 08:45:32 AM 30.1059 -95.0556 90° East 243 280 6,900  Level FlightAware ADS-B
Mon 08:46:03 AM 30.1058 -95.0143 90° East 243 280 6,900  Level FlightAware ADS-B
Mon 08:46:20 AM 30.1058 -94.9932 90° East 243 280 6,900  Level FlightAware ADS-B
Mon 08:46:29 AM 30.1054 -94.9809 92° East 242 278 6,900  Level FlightAware ADS-B
Mon 08:46:33 AM 30.1045 -94.9756 101° East 239 275 6,900  Level FlightAware ADS-B
Mon 08:46:46 AM 30.0975 -94.9619 130° Southeast 229 264 6,900  Level FlightAware ADS-B
Mon 08:46:50 AM 30.0943 -94.9587 139° Southeast 228 262 6,900  Level FlightAware ADS-B
Mon 08:46:59 AM 30.0866 -94.9542 158° South 224 258 6,900  Level FlightAware ADS-B
Mon 08:47:02 AM 30.0835 -94.9534 167° South 224 258 6,900  Level FlightAware ADS-B
Mon 08:47:09 AM 30.0767 -94.9528 179° South 222 255 6,900  Level FlightAware ADS-B
Mon 08:47:15 AM 30.0701 -94.9530 182° South 221 254 6,900  Level FlightAware ADS-B
Mon 08:47:54 AM 30.0306 -94.9556 184° South 220 253 6,900  Level FlightAware ADS-B
Mon 08:47:57 AM 30.0275 -94.9562 190° South 220 253 6,900  Level FlightAware ADS-B
Mon 08:48:08 AM 30.0174 -94.9614 212° Southwest 222 255 6,900  Level FlightAware ADS-B
Mon 08:48:11 AM 30.0148 -94.9640 221° Southwest 223 257 6,900  Level FlightAware ADS-B
Mon 08:48:15 AM 30.0123 -94.9672 228° Southwest 224 258 6,900 -600 Level FlightAware ADS-B
Mon 08:48:21 AM 30.0084 -94.9732 233° Southwest 223 257 6,800 -857 Descending FlightAware ADS-B
Mon 08:48:36 AM 29.9997 -94.9886 237° Southwest 221 254 6,600 -1,000 Descending FlightAware ADS-B
Mon 08:48:39 AM 29.9983 -94.9917 242° Southwest 222 255 6,500 -857 Descending FlightAware ADS-B
Mon 08:48:50 AM 29.9950 -95.0033 257° West 220 253 6,400 -400 Descending FlightAware ADS-B
Mon 08:48:54 AM 29.9944 -95.0082 262° West 219 252 6,400 -667 Level FlightAware ADS-B
Mon 08:49:17 AM 29.9935 -95.0338 268° West 204 235 6,100 -1,770 Descending FlightAware ADS-B
Mon 08:49:55 AM 29.9933 -95.0754 270° West 208 239 4,600 -2,264 Descending FlightAware ADS-B
Mon 08:50:10 AM 29.9933 -95.0922 270° West 206 237 4,100 -1,826 Descending FlightAware ADS-B
Mon 08:50:41 AM 29.9934 -95.1256 270° West 202 232 3,200 -1,448 Descending FlightAware ADS-B
Mon 08:51:08 AM 29.9934 -95.1543 270° West 204 235 2,700 -952 Descending FlightAware ADS-B
Mon 08:51:44 AM 29.9935 -95.1920 270° West 191 220 2,200 -923 Descending FlightAware ADS-B
Mon 08:52:00 AM 29.9934 -95.2073 270° West 186 214 1,900 -909 Descending FlightAware ADS-B
Mon 08:52:17 AM 29.9935 -95.2230 270° West 167 192 1,700 -909 Descending FlightAware ADS-B
Mon 08:52:33 AM 29.9935 -95.2362 270° West 150 173 1,400 -1,000 Descending FlightAware ADS-B
Mon 08:52:41 AM 29.9934 -95.2426 269° West 144 166 1,300 -571 Descending FlightAware ADS-B
Mon 08:52:54 AM 29.9934 -95.2527 270° West 142 163 1,200 -750 Descending FlightAware ADS-B
Mon 08:53:05 AM 29.9934 -95.2608 270° West 141 162 1,000 -947 Descending FlightAware ADS-B
Mon 08:53:13 AM 29.9934 -95.2668 270° West 140 161 900 -522 Descending FlightAware ADS-B
Mon 08:53:28 AM 29.9935 -95.2779 271° West 139 160 800 -621 Descending FlightAware ADS-B
Mon 08:53:42 AM 29.9934 -95.2883 269° West 137 158 600 -828 Descending FlightAware ADS-B
Mon 08:53:57 AM 29.9935 -95.2995 271° West 135 155 400 -632 Descending FlightAware ADS-B
Mon 08:54:01 AM 29.9935 -95.3019 270° West 134 154 400 -667 Level FlightAware ADS-B
Mon 08:54:15 AM 29.9933 -95.3119 269° West 135 155 200 -857 Descending FlightAware ADS-B
Mon 08:54:31 AM 29.9935 -95.3234 271° West 136 157 -750 Descending FlightAware ADS-B

Login

Don't have an account? Register now (free) for customized features, flight alerts, and more!